sensor_id;sensor_type;location;lat;lon;timestamp;P1;durP1;ratioP1;P2;durP2;ratioP2
61673;SDS011;47573;43.832;5.974;2022-12-07T00:04:23;252.63;;;129.25;;
61673;SDS011;47573;43.832;5.974;2022-12-07T00:09:24;253.32;;;131.88;;
61673;SDS011;47573;43.832;5.974;2022-12-07T00:14:26;250.93;;;126.93;;
61673;SDS011;47573;43.832;5.974;2022-12-07T00:19:26;239.48;;;122.72;;
61673;SDS011;47573;43.832;5.974;2022-12-07T00:24:27;235.45;;;124.43;;
61673;SDS011;47573;43.832;5.974;2022-12-07T00:29:29;239.43;;;122.63;;
61673;SDS011;47573;43.832;5.974;2022-12-07T00:34:29;221.50;;;117.53;;
61673;SDS011;47573;43.832;5.974;2022-12-07T00:39:30;222.73;;;117.10;;
61673;SDS011;47573;43.832;5.974;2022-12-07T00:44:32;221.07;;;113.18;;
61673;SDS011;47573;43.832;5.974;2022-12-07T00:49:32;209.23;;;111.15;;
61673;SDS011;47573;43.832;5.974;2022-12-07T00:54:33;214.63;;;109.25;;
61673;SDS011;47573;43.832;5.974;2022-12-07T00:59:35;209.80;;;106.93;;
61673;SDS011;47573;43.832;5.974;2022-12-07T01:04:35;201.75;;;105.72;;
61673;SDS011;47573;43.832;5.974;2022-12-07T01:09:36;191.85;;;98.13;;
61673;SDS011;47573;43.832;5.974;2022-12-07T01:14:38;183.88;;;97.15;;
61673;SDS011;47573;43.832;5.974;2022-12-07T01:19:38;189.85;;;98.60;;
61673;SDS011;47573;43.832;5.974;2022-12-07T01:24:39;187.27;;;96.38;;
61673;SDS011;47573;43.832;5.974;2022-12-07T01:29:41;177.73;;;91.35;;
61673;SDS011;47573;43.832;5.974;2022-12-07T01:34:41;162.73;;;83.80;;
61673;SDS011;47573;43.832;5.974;2022-12-07T01:39:42;159.05;;;86.25;;
61673;SDS011;47573;43.832;5.974;2022-12-07T01:50:24;161.43;;;83.28;;
61673;SDS011;47573;43.832;5.974;2022-12-07T01:55:26;156.25;;;80.18;;
61673;SDS011;47573;43.832;5.974;2022-12-07T02:00:27;151.70;;;78.72;;
61673;SDS011;47573;43.832;5.974;2022-12-07T02:05:29;150.68;;;76.45;;
61673;SDS011;47573;43.832;5.974;2022-12-07T02:10:31;147.48;;;74.35;;
61673;SDS011;47573;43.832;5.974;2022-12-07T02:15:35;141.85;;;69.10;;
61673;SDS011;47573;43.832;5.974;2022-12-07T02:20:47;139.07;;;69.25;;
61673;SDS011;47573;43.832;5.974;2022-12-07T02:26:09;139.55;;;68.85;;
61673;SDS011;47573;43.832;5.974;2022-12-07T02:31:34;128.52;;;66.93;;
61673;SDS011;47573;43.832;5.974;2022-12-07T02:36:39;123.18;;;63.30;;
61673;SDS011;47573;43.832;5.974;2022-12-07T02:41:44;128.23;;;63.15;;
61673;SDS011;47573;43.832;5.974;2022-12-07T02:46:52;122.03;;;61.33;;
61673;SDS011;47573;43.832;5.974;2022-12-07T02:51:57;122.50;;;59.55;;
61673;SDS011;47573;43.832;5.974;2022-12-07T02:57:00;115.88;;;58.88;;
61673;SDS011;47573;43.832;5.974;2022-12-07T03:02:12;113.15;;;56.65;;
61673;SDS011;47573;43.832;5.974;2022-12-07T03:07:25;107.25;;;55.03;;
61673;SDS011;47573;43.832;5.974;2022-12-07T03:12:35;107.45;;;54.20;;
61673;SDS011;47573;43.832;5.974;2022-12-07T03:17:43;104.93;;;53.15;;
61673;SDS011;47573;43.832;5.974;2022-12-07T03:22:46;99.40;;;51.88;;
61673;SDS011;47573;43.832;5.974;2022-12-07T03:27:48;101.13;;;50.70;;
61673;SDS011;47573;43.832;5.974;2022-12-07T03:32:55;96.90;;;49.17;;
61673;SDS011;47573;43.832;5.974;2022-12-07T03:38:00;92.30;;;47.35;;
61673;SDS011;47573;43.832;5.974;2022-12-07T03:43:08;92.85;;;47.58;;
61673;SDS011;47573;43.832;5.974;2022-12-07T03:48:12;89.70;;;45.95;;
61673;SDS011;47573;43.832;5.974;2022-12-07T03:53:22;84.15;;;44.35;;
61673;SDS011;47573;43.832;5.974;2022-12-07T03:58:28;83.68;;;43.45;;
61673;SDS011;47573;43.832;5.974;2022-12-07T04:03:31;86.75;;;43.65;;
61673;SDS011;47573;43.832;5.974;2022-12-07T04:08:32;79.88;;;40.63;;
61673;SDS011;47573;43.832;5.974;2022-12-07T04:13:32;78.90;;;40.65;;
61673;SDS011;47573;43.832;5.974;2022-12-07T04:18:34;229.80;;;95.03;;
61673;SDS011;47573;43.832;5.974;2022-12-07T04:23:35;315.17;;;124.32;;
61673;SDS011;47573;43.832;5.974;2022-12-07T04:28:35;466.30;;;194.88;;
61673;SDS011;47573;43.832;5.974;2022-12-07T04:33:37;423.13;;;175.48;;
61673;SDS011;47573;43.832;5.974;2022-12-07T04:38:38;342.67;;;140.73;;
61673;SDS011;47573;43.832;5.974;2022-12-07T04:43:38;290.17;;;122.10;;
61673;SDS011;47573;43.832;5.974;2022-12-07T04:48:40;269.55;;;112.55;;
61673;SDS011;47573;43.832;5.974;2022-12-07T04:53:40;250.45;;;106.35;;
61673;SDS011;47573;43.832;5.974;2022-12-07T04:58:41;251.00;;;105.22;;
61673;SDS011;47573;43.832;5.974;2022-12-07T05:03:43;245.27;;;104.85;;
61673;SDS011;47573;43.832;5.974;2022-12-07T05:08:44;246.10;;;104.18;;
61673;SDS011;47573;43.832;5.974;2022-12-07T05:13:45;234.07;;;101.47;;
61673;SDS011;47573;43.832;5.974;2022-12-07T05:18:47;233.85;;;99.90;;
61673;SDS011;47573;43.832;5.974;2022-12-07T05:23:47;232.35;;;97.90;;
61673;SDS011;47573;43.832;5.974;2022-12-07T05:28:49;224.05;;;95.00;;
61673;SDS011;47573;43.832;5.974;2022-12-07T05:33:52;214.35;;;91.55;;
61673;SDS011;47573;43.832;5.974;2022-12-07T05:38:53;211.50;;;90.43;;
61673;SDS011;47573;43.832;5.974;2022-12-07T05:43:53;210.35;;;88.32;;
61673;SDS011;47573;43.832;5.974;2022-12-07T05:48:55;198.90;;;84.20;;
61673;SDS011;47573;43.832;5.974;2022-12-07T05:53:55;202.98;;;85.35;;
61673;SDS011;47573;43.832;5.974;2022-12-07T05:58:56;190.75;;;80.32;;
61673;SDS011;47573;43.832;5.974;2022-12-07T06:03:58;192.73;;;81.40;;
61673;SDS011;47573;43.832;5.974;2022-12-07T06:08:58;184.35;;;77.80;;
61673;SDS011;47573;43.832;5.974;2022-12-07T06:13:59;177.45;;;75.68;;
61673;SDS011;47573;43.832;5.974;2022-12-07T06:19:01;175.70;;;74.35;;
61673;SDS011;47573;43.832;5.974;2022-12-07T06:24:01;163.40;;;70.15;;
61673;SDS011;47573;43.832;5.974;2022-12-07T06:29:02;165.23;;;70.38;;
61673;SDS011;47573;43.832;5.974;2022-12-07T06:34:05;160.52;;;68.13;;
61673;SDS011;47573;43.832;5.974;2022-12-07T06:39:06;158.95;;;66.07;;
61673;SDS011;47573;43.832;5.974;2022-12-07T06:44:07;162.75;;;67.40;;
61673;SDS011;47573;43.832;5.974;2022-12-07T06:49:09;153.35;;;64.70;;
61673;SDS011;47573;43.832;5.974;2022-12-07T06:54:10;147.10;;;61.03;;
61673;SDS011;47573;43.832;5.974;2022-12-07T06:59:12;150.70;;;59.95;;
61673;SDS011;47573;43.832;5.974;2022-12-07T07:04:14;143.05;;;59.15;;
61673;SDS011;47573;43.832;5.974;2022-12-07T07:09:15;142.10;;;57.38;;
61673;SDS011;47573;43.832;5.974;2022-12-07T07:14:15;132.40;;;56.58;;
61673;SDS011;47573;43.832;5.974;2022-12-07T07:19:17;130.85;;;55.03;;
61673;SDS011;47573;43.832;5.974;2022-12-07T07:24:18;117.60;;;51.28;;
61673;SDS011;47573;43.832;5.974;2022-12-07T07:29:18;158.85;;;61.03;;
61673;SDS011;47573;43.832;5.974;2022-12-07T07:34:20;192.38;;;70.05;;
61673;SDS011;47573;43.832;5.974;2022-12-07T07:39:21;543.92;;;225.38;;
61673;SDS011;47573;43.832;5.974;2022-12-07T07:44:21;158.20;;;56.45;;
61673;SDS011;47573;43.832;5.974;2022-12-07T07:49:23;191.02;;;69.95;;
61673;SDS011;47573;43.832;5.974;2022-12-07T07:54:23;180.93;;;63.80;;
61673;SDS011;47573;43.832;5.974;2022-12-07T07:59:24;413.90;;;183.63;;
61673;SDS011;47573;43.832;5.974;2022-12-07T08:04:26;228.18;;;73.03;;
61673;SDS011;47573;43.832;5.974;2022-12-07T08:09:26;254.88;;;77.60;;
61673;SDS011;47573;43.832;5.974;2022-12-07T08:14:27;121.38;;;45.95;;
61673;SDS011;47573;43.832;5.974;2022-12-07T08:19:29;128.80;;;47.53;;
61673;SDS011;47573;43.832;5.974;2022-12-07T08:24:29;141.80;;;49.13;;
61673;SDS011;47573;43.832;5.974;2022-12-07T08:29:32;114.32;;;42.75;;
61673;SDS011;47573;43.832;5.974;2022-12-07T08:34:34;466.13;;;164.98;;
61673;SDS011;47573;43.832;5.974;2022-12-07T08:39:35;112.25;;;44.08;;
61673;SDS011;47573;43.832;5.974;2022-12-07T08:44:35;84.65;;;35.83;;
61673;SDS011;47573;43.832;5.974;2022-12-07T08:49:38;221.27;;;70.25;;
61673;SDS011;47573;43.832;5.974;2022-12-07T08:54:41;89.30;;;35.70;;
61673;SDS011;47573;43.832;5.974;2022-12-07T08:59:42;83.63;;;36.17;;
61673;SDS011;47573;43.832;5.974;2022-12-07T09:04:44;77.40;;;33.65;;
61673;SDS011;47573;43.832;5.974;2022-12-07T09:09:44;76.68;;;33.83;;
61673;SDS011;47573;43.832;5.974;2022-12-07T09:14:45;70.50;;;32.08;;
61673;SDS011;47573;43.832;5.974;2022-12-07T09:19:47;64.70;;;30.90;;
61673;SDS011;47573;43.832;5.974;2022-12-07T09:24:47;125.63;;;46.47;;
61673;SDS011;47573;43.832;5.974;2022-12-07T09:29:47;67.05;;;30.58;;
61673;SDS011;47573;43.832;5.974;2022-12-07T09:34:49;70.65;;;32.08;;
61673;SDS011;47573;43.832;5.974;2022-12-07T09:39:50;66.78;;;30.52;;
61673;SDS011;47573;43.832;5.974;2022-12-07T09:44:51;60.22;;;29.52;;
61673;SDS011;47573;43.832;5.974;2022-12-07T09:49:52;68.13;;;31.40;;
61673;SDS011;47573;43.832;5.974;2022-12-07T09:54:55;73.97;;;31.30;;
61673;SDS011;47573;43.832;5.974;2022-12-07T09:59:56;75.55;;;30.85;;
61673;SDS011;47573;43.832;5.974;2022-12-07T10:05:00;62.53;;;27.98;;
61673;SDS011;47573;43.832;5.974;2022-12-07T10:10:02;68.47;;;29.30;;
61673;SDS011;47573;43.832;5.974;2022-12-07T10:15:04;56.70;;;26.60;;
61673;SDS011;47573;43.832;5.974;2022-12-07T10:20:13;55.58;;;25.95;;
61673;SDS011;47573;43.832;5.974;2022-12-07T10:25:18;53.33;;;25.70;;
61673;SDS011;47573;43.832;5.974;2022-12-07T10:30:21;54.40;;;25.20;;
61673;SDS011;47573;43.832;5.974;2022-12-07T10:35:24;47.40;;;22.60;;
61673;SDS011;47573;43.832;5.974;2022-12-07T10:40:29;35.77;;;17.43;;
61673;SDS011;47573;43.832;5.974;2022-12-07T10:45:34;32.05;;;15.25;;
61673;SDS011;47573;43.832;5.974;2022-12-07T10:50:47;25.10;;;13.10;;
61673;SDS011;47573;43.832;5.974;2022-12-07T10:56:04;28.83;;;13.43;;
61673;SDS011;47573;43.832;5.974;2022-12-07T11:01:27;23.63;;;11.80;;
61673;SDS011;47573;43.832;5.974;2022-12-07T11:06:34;21.40;;;11.65;;
61673;SDS011;47573;43.832;5.974;2022-12-07T11:11:38;21.77;;;10.50;;
61673;SDS011;47573;43.832;5.974;2022-12-07T11:16:52;27.67;;;13.95;;
61673;SDS011;47573;43.832;5.974;2022-12-07T11:21:57;82.95;;;35.45;;
61673;SDS011;47573;43.832;5.974;2022-12-07T11:32:08;156.02;;;64.80;;
61673;SDS011;47573;43.832;5.974;2022-12-07T11:37:18;196.57;;;81.80;;
61673;SDS011;47573;43.832;5.974;2022-12-07T11:42:22;199.20;;;82.32;;
61673;SDS011;47573;43.832;5.974;2022-12-07T11:47:26;192.88;;;81.20;;
61673;SDS011;47573;43.832;5.974;2022-12-07T11:52:39;188.07;;;77.07;;
61673;SDS011;47573;43.832;5.974;2022-12-07T11:57:44;184.00;;;78.38;;
61673;SDS011;47573;43.832;5.974;2022-12-07T12:02:51;183.20;;;76.85;;
61673;SDS011;47573;43.832;5.974;2022-12-07T12:08:02;182.60;;;74.35;;
61673;SDS011;47573;43.832;5.974;2022-12-07T12:13:19;181.40;;;75.50;;
61673;SDS011;47573;43.832;5.974;2022-12-07T12:18:33;169.82;;;72.93;;
61673;SDS011;47573;43.832;5.974;2022-12-07T12:23:50;173.20;;;70.25;;
61673;SDS011;47573;43.832;5.974;2022-12-07T12:28:57;162.65;;;69.13;;
61673;SDS011;47573;43.832;5.974;2022-12-07T12:34:03;162.50;;;69.43;;
61673;SDS011;47573;43.832;5.974;2022-12-07T12:39:25;163.00;;;68.85;;
61673;SDS011;47573;43.832;5.974;2022-12-07T12:44:39;150.35;;;65.70;;
61673;SDS011;47573;43.832;5.974;2022-12-07T12:55:24;148.02;;;63.60;;
61673;SDS011;47573;43.832;5.974;2022-12-07T13:00:44;143.48;;;61.97;;
61673;SDS011;47573;43.832;5.974;2022-12-07T13:05:45;143.85;;;62.00;;
61673;SDS011;47573;43.832;5.974;2022-12-07T13:10:47;136.50;;;59.35;;
61673;SDS011;47573;43.832;5.974;2022-12-07T13:15:49;137.90;;;59.83;;
61673;SDS011;47573;43.832;5.974;2022-12-07T13:20:54;134.10;;;57.80;;
61673;SDS011;47573;43.832;5.974;2022-12-07T13:25:59;134.13;;;57.50;;
61673;SDS011;47573;43.832;5.974;2022-12-07T13:31:09;134.00;;;57.88;;
61673;SDS011;47573;43.832;5.974;2022-12-07T13:36:16;134.80;;;56.55;;
61673;SDS011;47573;43.832;5.974;2022-12-07T13:41:22;127.45;;;54.30;;
61673;SDS011;47573;43.832;5.974;2022-12-07T13:46:25;135.77;;;55.28;;
61673;SDS011;47573;43.832;5.974;2022-12-07T13:51:33;124.43;;;53.53;;
61673;SDS011;47573;43.832;5.974;2022-12-07T13:56:38;120.18;;;53.03;;
61673;SDS011;47573;43.832;5.974;2022-12-07T14:01:38;121.80;;;51.35;;
61673;SDS011;47573;43.832;5.974;2022-12-07T14:06:46;125.68;;;53.60;;
61673;SDS011;47573;43.832;5.974;2022-12-07T14:11:50;116.10;;;50.20;;
61673;SDS011;47573;43.832;5.974;2022-12-07T14:16:56;118.82;;;51.70;;
61673;SDS011;47573;43.832;5.974;2022-12-07T14:22:06;110.90;;;48.47;;
61673;SDS011;47573;43.832;5.974;2022-12-07T14:27:16;112.95;;;47.60;;
61673;SDS011;47573;43.832;5.974;2022-12-07T14:32:19;110.70;;;47.20;;
61673;SDS011;47573;43.832;5.974;2022-12-07T14:37:21;108.13;;;48.40;;
61673;SDS011;47573;43.832;5.974;2022-12-07T14:42:23;99.30;;;45.58;;
61673;SDS011;47573;43.832;5.974;2022-12-07T14:47:27;101.65;;;45.20;;
61673;SDS011;47573;43.832;5.974;2022-12-07T14:52:28;100.68;;;45.92;;
61673;SDS011;47573;43.832;5.974;2022-12-07T14:57:30;138.35;;;54.72;;
61673;SDS011;47573;43.832;5.974;2022-12-07T15:02:31;98.70;;;45.03;;
61673;SDS011;47573;43.832;5.974;2022-12-07T15:07:31;100.53;;;45.85;;
61673;SDS011;47573;43.832;5.974;2022-12-07T15:12:33;91.88;;;43.95;;
61673;SDS011;47573;43.832;5.974;2022-12-07T15:17:34;90.75;;;42.88;;
61673;SDS011;47573;43.832;5.974;2022-12-07T15:22:34;365.75;;;142.25;;
61673;SDS011;47573;43.832;5.974;2022-12-07T15:27:36;94.90;;;45.08;;
61673;SDS011;47573;43.832;5.974;2022-12-07T15:32:36;87.55;;;42.25;;
61673;SDS011;47573;43.832;5.974;2022-12-07T15:37:37;82.97;;;41.78;;
61673;SDS011;47573;43.832;5.974;2022-12-07T15:42:39;86.07;;;42.28;;
61673;SDS011;47573;43.832;5.974;2022-12-07T15:47:40;150.55;;;57.78;;
61673;SDS011;47573;43.832;5.974;2022-12-07T15:52:42;83.97;;;42.28;;
61673;SDS011;47573;43.832;5.974;2022-12-07T15:57:44;74.80;;;38.60;;
61673;SDS011;47573;43.832;5.974;2022-12-07T16:02:45;73.93;;;38.72;;
61673;SDS011;47573;43.832;5.974;2022-12-07T16:07:45;71.68;;;37.75;;
61673;SDS011;47573;43.832;5.974;2022-12-07T16:12:47;72.20;;;36.70;;
61673;SDS011;47573;43.832;5.974;2022-12-07T16:17:48;65.95;;;35.75;;
61673;SDS011;47573;43.832;5.974;2022-12-07T16:22:50;65.72;;;35.05;;
61673;SDS011;47573;43.832;5.974;2022-12-07T16:27:52;68.60;;;35.35;;
61673;SDS011;47573;43.832;5.974;2022-12-07T16:32:53;64.55;;;33.53;;
61673;SDS011;47573;43.832;5.974;2022-12-07T16:37:54;63.85;;;33.92;;
61673;SDS011;47573;43.832;5.974;2022-12-07T16:42:55;67.63;;;35.33;;
61673;SDS011;47573;43.832;5.974;2022-12-07T16:47:56;63.85;;;34.97;;
61673;SDS011;47573;43.832;5.974;2022-12-07T16:52:56;74.63;;;39.33;;
61673;SDS011;47573;43.832;5.974;2022-12-07T16:57:58;75.03;;;39.38;;
61673;SDS011;47573;43.832;5.974;2022-12-07T17:02:59;79.90;;;42.88;;
61673;SDS011;47573;43.832;5.974;2022-12-07T17:08:00;87.72;;;46.78;;
61673;SDS011;47573;43.832;5.974;2022-12-07T17:13:03;89.32;;;48.42;;
61673;SDS011;47573;43.832;5.974;2022-12-07T17:18:04;98.18;;;52.78;;
61673;SDS011;47573;43.832;5.974;2022-12-07T17:23:04;127.85;;;69.30;;
61673;SDS011;47573;43.832;5.974;2022-12-07T17:28:06;133.20;;;73.05;;
61673;SDS011;47573;43.832;5.974;2022-12-07T17:33:06;137.25;;;74.80;;
61673;SDS011;47573;43.832;5.974;2022-12-07T17:38:07;133.70;;;70.80;;
61673;SDS011;47573;43.832;5.974;2022-12-07T17:43:09;198.75;;;103.05;;
61673;SDS011;47573;43.832;5.974;2022-12-07T17:48:09;234.07;;;123.35;;
61673;SDS011;47573;43.832;5.974;2022-12-07T17:53:10;236.65;;;126.97;;
61673;SDS011;47573;43.832;5.974;2022-12-07T17:58:14;232.30;;;127.45;;
61673;SDS011;47573;43.832;5.974;2022-12-07T18:03:14;237.77;;;125.28;;
61673;SDS011;47573;43.832;5.974;2022-12-07T18:08:15;234.32;;;124.80;;
61673;SDS011;47573;43.832;5.974;2022-12-07T18:13:16;238.30;;;128.82;;
61673;SDS011;47573;43.832;5.974;2022-12-07T18:18:17;248.95;;;131.48;;
61673;SDS011;47573;43.832;5.974;2022-12-07T18:23:18;276.45;;;148.27;;
61673;SDS011;47573;43.832;5.974;2022-12-07T18:28:20;307.10;;;165.02;;
61673;SDS011;47573;43.832;5.974;2022-12-07T18:33:20;317.50;;;175.25;;
61673;SDS011;47573;43.832;5.974;2022-12-07T18:38:20;317.48;;;174.27;;
61673;SDS011;47573;43.832;5.974;2022-12-07T18:43:22;320.55;;;171.38;;
61673;SDS011;47573;43.832;5.974;2022-12-07T18:48:23;316.55;;;169.98;;
61673;SDS011;47573;43.832;5.974;2022-12-07T18:53:24;315.38;;;171.43;;
61673;SDS011;47573;43.832;5.974;2022-12-07T18:58:25;315.25;;;169.95;;
61673;SDS011;47573;43.832;5.974;2022-12-07T19:03:26;311.52;;;171.20;;
61673;SDS011;47573;43.832;5.974;2022-12-07T19:08:27;317.33;;;170.95;;
61673;SDS011;47573;43.832;5.974;2022-12-07T19:13:29;317.42;;;172.25;;
61673;SDS011;47573;43.832;5.974;2022-12-07T19:18:29;311.45;;;167.02;;
61673;SDS011;47573;43.832;5.974;2022-12-07T19:23:32;313.17;;;168.55;;
61673;SDS011;47573;43.832;5.974;2022-12-07T19:28:34;317.60;;;166.48;;
61673;SDS011;47573;43.832;5.974;2022-12-07T19:33:35;306.20;;;162.27;;
61673;SDS011;47573;43.832;5.974;2022-12-07T19:38:35;313.65;;;165.77;;
61673;SDS011;47573;43.832;5.974;2022-12-07T19:43:37;314.60;;;163.48;;
61673;SDS011;47573;43.832;5.974;2022-12-07T19:48:37;315.70;;;170.20;;
61673;SDS011;47573;43.832;5.974;2022-12-07T19:53:39;373.95;;;213.45;;
61673;SDS011;47573;43.832;5.974;2022-12-07T19:58:41;416.75;;;241.02;;
61673;SDS011;47573;43.832;5.974;2022-12-07T20:03:41;410.20;;;233.57;;
61673;SDS011;47573;43.832;5.974;2022-12-07T20:08:42;429.73;;;249.02;;
61673;SDS011;47573;43.832;5.974;2022-12-07T20:13:45;449.13;;;261.73;;
61673;SDS011;47573;43.832;5.974;2022-12-07T20:18:46;435.73;;;258.33;;
61673;SDS011;47573;43.832;5.974;2022-12-07T20:23:47;424.80;;;247.27;;
61673;SDS011;47573;43.832;5.974;2022-12-07T20:28:49;422.17;;;244.95;;
61673;SDS011;47573;43.832;5.974;2022-12-07T20:33:49;408.17;;;238.88;;
61673;SDS011;47573;43.832;5.974;2022-12-07T20:38:50;405.77;;;233.95;;
61673;SDS011;47573;43.832;5.974;2022-12-07T20:43:52;395.30;;;224.60;;
61673;SDS011;47573;43.832;5.974;2022-12-07T20:48:52;378.58;;;219.27;;
61673;SDS011;47573;43.832;5.974;2022-12-07T20:53:54;377.88;;;216.85;;
61673;SDS011;47573;43.832;5.974;2022-12-07T20:58:56;379.42;;;213.68;;
61673;SDS011;47573;43.832;5.974;2022-12-07T21:03:59;375.13;;;217.25;;
61673;SDS011;47573;43.832;5.974;2022-12-07T21:09:02;387.33;;;225.80;;
61673;SDS011;47573;43.832;5.974;2022-12-07T21:14:04;410.52;;;236.85;;
61673;SDS011;47573;43.832;5.974;2022-12-07T21:19:04;433.42;;;256.88;;
61673;SDS011;47573;43.832;5.974;2022-12-07T21:24:05;432.98;;;256.73;;
61673;SDS011;47573;43.832;5.974;2022-12-07T21:29:08;430.45;;;256.00;;
61673;SDS011;47573;43.832;5.974;2022-12-07T21:34:08;432.80;;;256.98;;
61673;SDS011;47573;43.832;5.974;2022-12-07T21:39:09;442.73;;;268.13;;
61673;SDS011;47573;43.832;5.974;2022-12-07T21:44:11;473.58;;;286.45;;
61673;SDS011;47573;43.832;5.974;2022-12-07T21:49:12;485.67;;;295.13;;
61673;SDS011;47573;43.832;5.974;2022-12-07T21:54:13;487.38;;;297.58;;
61673;SDS011;47573;43.832;5.974;2022-12-07T21:59:15;492.55;;;307.27;;
61673;SDS011;47573;43.832;5.974;2022-12-07T22:04:17;502.23;;;320.15;;
61673;SDS011;47573;43.832;5.974;2022-12-07T22:09:18;510.08;;;320.63;;
61673;SDS011;47573;43.832;5.974;2022-12-07T22:14:21;501.35;;;317.95;;
61673;SDS011;47573;43.832;5.974;2022-12-07T22:19:21;496.45;;;314.17;;
61673;SDS011;47573;43.832;5.974;2022-12-07T22:24:22;495.30;;;309.30;;
61673;SDS011;47573;43.832;5.974;2022-12-07T22:29:25;496.60;;;313.10;;
61673;SDS011;47573;43.832;5.974;2022-12-07T22:34:25;498.88;;;315.40;;
61673;SDS011;47573;43.832;5.974;2022-12-07T22:39:26;493.30;;;315.95;;
61673;SDS011;47573;43.832;5.974;2022-12-07T22:44:28;503.88;;;322.45;;
61673;SDS011;47573;43.832;5.974;2022-12-07T22:49:28;502.52;;;318.20;;
61673;SDS011;47573;43.832;5.974;2022-12-07T22:54:29;490.20;;;309.30;;
61673;SDS011;47573;43.832;5.974;2022-12-07T22:59:31;488.25;;;310.33;;
61673;SDS011;47573;43.832;5.974;2022-12-07T23:04:31;478.10;;;301.55;;
61673;SDS011;47573;43.832;5.974;2022-12-07T23:09:32;478.35;;;300.50;;
61673;SDS011;47573;43.832;5.974;2022-12-07T23:14:34;468.88;;;295.05;;
61673;SDS011;47573;43.832;5.974;2022-12-07T23:19:35;457.52;;;284.30;;
61673;SDS011;47573;43.832;5.974;2022-12-07T23:24:36;462.75;;;289.73;;
61673;SDS011;47573;43.832;5.974;2022-12-07T23:29:37;479.45;;;303.77;;
61673;SDS011;47573;43.832;5.974;2022-12-07T23:34:38;492.05;;;316.83;;
61673;SDS011;47573;43.832;5.974;2022-12-07T23:39:39;500.55;;;318.42;;
61673;SDS011;47573;43.832;5.974;2022-12-07T23:44:41;488.17;;;312.17;;
61673;SDS011;47573;43.832;5.974;2022-12-07T23:49:41;492.25;;;318.40;;
61673;SDS011;47573;43.832;5.974;2022-12-07T23:54:42;489.13;;;317.15;;
61673;SDS011;47573;43.832;5.974;2022-12-07T23:59:43;487.00;;;311.80;;
